Time;durP1;ratioP1;P1;durP2;ratioP2;P2;SDS_P1;SDS_P2;PMS_P1;PMS_P2;Temp;Humidity;BMP_temperature;BMP_pressure;BME280_temperature;BME280_humidity;BME280_pressure;Samples;Min_cycle;Max_cycle;Signal;HPM_P1;HPM_P2
2022/07/04 00:00:07;;;;;;;1.80;1.70;;;20.30;83.10;;;;;;5076652;28;21419;-86
2022/07/04 00:02:34;;;;;;;1.73;1.63;;;20.30;83.80;;;;;;5073754;28;20675;-86
2022/07/04 00:05:01;;;;;;;1.40;1.30;;;21.40;84.70;;;;;;5070574;28;20609;-88
2022/07/04 00:07:28;;;;;;;1.67;1.57;;;20.10;82.60;;;;;;5075244;28;20741;-86
2022/07/04 00:09:58;;;;;;;1.40;1.27;;;20.10;84.50;;;;;;5073718;28;20636;-86
2022/07/04 00:12:26;;;;;;;1.53;1.43;;;20.10;85.60;;;;;;5072433;28;20651;-86
2022/07/04 00:14:54;;;;;;;1.37;1.23;;;20.00;84.70;;;;;;5074968;28;20649;-87
2022/07/04 00:17:21;;;;;;;1.73;1.63;;;20.00;85.00;;;;;;5073921;28;20612;-86
2022/07/04 00:19:49;;;;;;;1.57;1.47;;;20.00;84.40;;;;;;5061671;28;20618;-86
2022/07/04 00:22:17;;;;;;;1.50;1.40;;;20.10;84.40;;;;;;5065825;28;21679;-87
2022/07/04 00:24:45;;;;;;;1.47;1.37;;;20.10;84.20;;;;;;5072293;28;20655;-88
2022/07/04 00:27:13;;;;;;;3.07;2.40;;;20.00;83.60;;;;;;5074171;28;20609;-87
2022/07/04 00:29:40;;;;;;;1.50;1.40;;;20.00;84.10;;;;;;5071465;28;20661;-87
2022/07/04 00:32:10;;;;;;;1.40;1.30;;;20.00;82.40;;;;;;5072192;28;20640;-86
2022/07/04 00:34:38;;;;;;;1.57;1.47;;;20.00;83.30;;;;;;5073880;28;21074;-86
2022/07/04 00:37:06;;;;;;;1.40;1.30;;;20.00;83.80;;;;;;5074845;28;20616;-88
2022/07/04 00:39:33;;;;;;;1.20;1.20;;;20.00;83.00;;;;;;5062439;28;20626;-86
2022/07/04 00:42:01;;;;;;;1.30;1.20;;;19.80;82.70;;;;;;5067817;28;20618;-86
2022/07/04 00:44:35;;;;;;;2.10;1.03;;;19.80;83.00;;;;;;5069394;28;20720;-86
2022/07/04 00:47:03;;;;;;;2.13;1.67;;;19.80;83.20;;;;;;5074642;28;20613;-87
2022/07/04 00:49:31;;;;;;;1.33;1.10;;;19.80;83.30;;;;;;5071139;28;20626;-86
2022/07/04 00:52:00;;;;;;;1.33;1.20;;;19.70;82.90;;;;;;5070845;28;20637;-85
2022/07/04 00:54:30;;;;;;;1.03;1.00;;;19.80;82.70;;;;;;5069046;28;20621;-86
2022/07/04 00:57:17;;;;;;;1.30;1.20;;;19.80;83.00;;;;;;5071824;28;20660;-86
2022/07/04 00:59:45;;;;;;;1.53;1.43;;;19.90;83.20;;;;;;5070630;28;20716;-86
2022/07/04 01:02:12;;;;;;;1.57;1.47;;;19.90;82.40;;;;;;5070181;28;20707;-85
2022/07/04 01:04:40;;;;;;;1.50;1.40;;;19.80;82.30;;;;;;5069843;28;20644;-86
2022/07/04 01:07:07;;;;;;;1.40;1.30;;;19.80;82.20;;;;;;5066638;28;20614;-85
2022/07/04 01:09:34;;;;;;;1.10;1.10;;;19.70;82.60;;;;;;5074477;28;20614;-86
2022/07/04 01:12:02;;;;;;;1.60;1.30;;;19.70;82.10;;;;;;5067498;28;21367;-86
2022/07/04 01:14:29;;;;;;;1.60;1.50;;;19.70;82.30;;;;;;5074730;28;20645;-85
2022/07/04 01:16:58;;;;;;;1.40;1.30;;;19.70;82.80;;;;;;5072674;28;20761;-87
2022/07/04 01:19:26;;;;;;;1.40;1.30;;;19.70;81.80;;;;;;5067702;28;21244;-86
2022/07/04 01:21:55;;;;;;;1.57;1.47;;;19.70;82.30;;;;;;5061448;28;21010;-86
2022/07/04 01:24:22;;;;;;;1.00;1.00;;;19.60;82.00;;;;;;5065778;28;20614;-87
2022/07/04 01:26:50;;;;;;;1.40;1.30;;;19.70;82.80;;;;;;5070809;28;20635;-87
2022/07/04 01:29:18;;;;;;;1.50;1.33;;;19.60;82.20;;;;;;5075632;28;21061;-86
2022/07/04 01:31:45;;;;;;;2.00;0.80;;;19.50;82.50;;;;;;5060589;28;20622;-85
2022/07/04 01:34:12;;;;;;;1.30;1.20;;;19.50;83.10;;;;;;5066379;28;20613;-87
2022/07/04 01:36:39;;;;;;;1.40;1.30;;;19.60;82.70;;;;;;5067128;28;20652;-87
2022/07/04 01:39:07;;;;;;;1.90;1.80;;;19.40;82.50;;;;;;5073370;28;20743;-86
2022/07/04 01:41:35;;;;;;;1.40;1.30;;;19.40;82.80;;;;;;5073973;28;20616;-87
2022/07/04 01:44:02;;;;;;;1.83;1.33;;;19.40;83.50;;;;;;5072175;28;20964;-86
2022/07/04 01:46:30;;;;;;;1.60;1.50;;;19.30;83.40;;;;;;5067312;28;20614;-87
2022/07/04 01:48:57;;;;;;;1.20;1.20;;;19.30;83.60;;;;;;5070790;28;20682;-85
2022/07/04 01:51:23;;;;;;;1.80;1.70;;;19.30;84.50;;;;;;5072026;28;20783;-86
2022/07/04 01:53:50;;;;;;;2.70;1.67;;;19.30;84.10;;;;;;5069718;28;20620;-86
2022/07/04 01:56:19;;;;;;;9.67;1.83;;;19.30;84.30;;;;;;5073951;28;20645;-86
2022/07/04 01:58:46;;;;;;;2.60;1.47;;;19.20;84.00;;;;;;5067818;28;20963;-86
2022/07/04 02:01:30;;;;;;;1.40;1.27;;;19.10;83.80;;;;;;5076681;28;20625;-86
2022/07/04 02:03:58;;;;;;;1.73;1.60;;;19.30;83.40;;;;;;5076379;28;21407;-87
2022/07/04 02:06:24;;;;;;;1.47;1.37;;;19.30;83.90;;;;;;5073180;28;20621;-86
2022/07/04 02:14:23;;;;;;;1.07;1.07;;;19.20;84.20;;;;;;5070869;28;20625;-86
2022/07/04 02:16:51;;;;;;;1.53;1.43;;;19.10;84.30;;;;;;5072345;28;20661;-87
2022/07/04 02:19:18;;;;;;;1.60;1.50;;;19.10;85.20;;;;;;5075525;28;20628;-86
2022/07/04 02:21:45;;;;;;;1.93;1.30;;;19.10;84.20;;;;;;5074625;28;20609;-88
2022/07/04 02:24:14;;;;;;;1.57;1.47;;;19.00;84.50;;;;;;5075553;28;20703;-86
2022/07/04 02:26:43;;;;;;;1.10;1.10;;;19.10;84.70;;;;;;5073352;28;20621;-85
2022/07/04 02:29:10;;;;;;;1.30;1.20;;;19.10;84.90;;;;;;5071346;28;20612;-86
2022/07/04 02:31:37;;;;;;;1.77;1.67;;;19.10;84.50;;;;;;5073446;28;20640;-87
2022/07/04 02:34:04;;;;;;;1.33;1.23;;;;;;;;;;5076565;28;20616;-86
2022/07/04 02:36:32;;;;;;;1.10;1.10;;;19.10;85.60;;;;;;5077094;28;20644;-87
2022/07/04 02:38:59;;;;;;;1.60;1.50;;;19.00;85.70;;;;;;5076604;28;20613;-85
2022/07/04 02:41:26;;;;;;;1.63;1.53;;;18.90;84.30;;;;;;5074921;28;20624;-86
2022/07/04 02:43:54;;;;;;;1.50;1.40;;;18.90;85.00;;;;;;5074422;28;20936;-85
2022/07/04 02:46:21;;;;;;;1.40;1.30;;;18.90;85.80;;;;;;5065295;28;21087;-88
2022/07/04 02:48:48;;;;;;;1.00;1.00;;;18.90;85.60;;;;;;5077638;28;20631;-86
2022/07/04 02:51:15;;;;;;;1.37;1.27;;;18.70;86.10;;;;;;5073710;28;21078;-86
2022/07/04 02:53:42;;;;;;;2.30;1.60;;;18.70;87.20;;;;;;5073884;28;20679;-86
2022/07/04 02:56:09;;;;;;;1.07;1.07;;;18.70;87.80;;;;;;5070316;28;20752;-86
2022/07/04 02:58:38;;;;;;;1.93;1.40;;;18.80;85.90;;;;;;5079310;28;20827;-85
2022/07/04 03:01:07;;;;;;;1.50;1.40;;;18.70;86.20;;;;;;5075399;28;20629;-85
2022/07/04 03:03:34;;;;;;;1.30;1.20;;;;;;;;;;5062459;28;20618;-87
2022/07/04 03:06:01;;;;;;;1.50;1.40;;;18.70;86.40;;;;;;5068872;28;20632;-85
2022/07/04 03:08:28;;;;;;;1.50;1.40;;;18.60;87.40;;;;;;5068364;28;20640;-86
2022/07/04 03:10:55;;;;;;;1.00;1.00;;;18.60;88.00;;;;;;5075662;28;20624;-85
2022/07/04 03:13:22;;;;;;;1.70;1.30;;;18.40;88.00;;;;;;5075284;28;20651;-85
2022/07/04 03:15:49;;;;;;;1.57;1.47;;;18.50;88.60;;;;;;5072899;28;20664;-86
2022/07/04 03:18:18;;;;;;;1.73;1.63;;;18.50;88.30;;;;;;5068990;28;20614;-86
2022/07/04 03:20:45;;;;;;;1.17;1.07;;;18.30;88.40;;;;;;5072472;28;20621;-86
2022/07/04 03:23:12;;;;;;;1.53;1.43;;;18.30;89.10;;;;;;5071832;28;20635;-86
2022/07/04 03:25:39;;;;;;;1.60;1.50;;;18.30;89.50;;;;;;5064404;28;21235;-86
2022/07/04 03:28:07;;;;;;;1.43;1.33;;;18.30;88.30;;;;;;5068024;28;20630;-85
2022/07/04 03:30:34;;;;;;;1.43;1.33;;;18.30;88.70;;;;;;5074397;28;20614;-86
2022/07/04 03:33:01;;;;;;;2.90;2.70;;;18.30;87.90;;;;;;5069524;28;20711;-86
2022/07/04 03:35:30;;;;;;;1.70;1.60;;;18.10;89.60;;;;;;5073018;28;20720;-86
2022/07/04 03:37:59;;;;;;;1.30;1.20;;;18.10;90.10;;;;;;5062228;28;21114;-86
2022/07/04 03:40:29;;;;;;;1.63;1.53;;;18.20;88.90;;;;;;5069220;28;20620;-86
2022/07/04 03:42:56;;;;;;;1.90;1.80;;;18.20;89.50;;;;;;5073953;28;20720;-86
2022/07/04 03:45:23;;;;;;;3.37;1.53;;;18.20;90.10;;;;;;5086959;28;20675;-85
2022/07/04 03:47:50;;;;;;;1.90;1.80;;;18.20;90.60;;;;;;5078648;28;20720;-86
2022/07/04 03:50:18;;;;;;;1.37;1.27;;;18.10;90.70;;;;;;5076375;28;20640;-85
2022/07/04 03:52:46;;;;;;;1.57;1.37;;;18.20;91.10;;;;;;5072105;28;20669;-86
2022/07/04 03:55:13;;;;;;;1.23;1.13;;;17.90;90.60;;;;;;5074580;28;21027;-86
2022/07/04 03:57:40;;;;;;;1.47;1.37;;;17.90;90.50;;;;;;5075072;28;20660;-87
2022/07/04 04:00:09;;;;;;;2.17;1.60;;;17.90;90.80;;;;;;5067283;28;20991;-86
2022/07/04 04:02:36;;;;;;;1.50;1.40;;;17.90;90.80;;;;;;5073288;28;20624;-86
2022/07/04 04:07:50;;;;;;;1.40;1.30;;;18.00;90.40;;;;;;5072699;28;20671;-86
2022/07/04 04:10:17;;;;;;;1.50;1.40;;;17.90;90.20;;;;;;5086821;28;21162;-87
2022/07/04 04:12:44;;;;;;;1.90;1.80;;;17.90;90.30;;;;;;5077257;28;20733;-87
2022/07/04 04:15:11;;;;;;;1.60;1.43;;;17.90;90.30;;;;;;5069797;28;20720;-85
2022/07/04 04:17:38;;;;;;;1.60;1.50;;;17.90;90.70;;;;;;5071991;28;20660;-87
2022/07/04 04:20:06;;;;;;;1.40;1.30;;;17.80;91.20;;;;;;5073123;28;21178;-86
2022/07/04 04:22:35;;;;;;;1.43;1.33;;;17.80;90.90;;;;;;5072296;28;20631;-86
2022/07/04 04:25:03;;;;;;;1.37;1.27;;;17.70;90.70;;;;;;5069817;28;20625;-87
2022/07/04 04:27:30;;;;;;;4.10;1.50;;;17.80;90.80;;;;;;5069665;28;20689;-86
2022/07/04 04:29:57;;;;;;;2.30;1.30;;;17.70;92.00;;;;;;5070381;28;20682;-86
2022/07/04 04:32:24;;;;;;;1.10;1.10;;;17.60;90.50;;;;;;5076228;28;20652;-86
2022/07/04 04:34:51;;;;;;;1.53;1.30;;;17.60;90.60;;;;;;5070603;28;20693;-85
2022/07/04 04:37:18;;;;;;;1.17;1.17;;;17.60;91.30;;;;;;5067118;28;21009;-88
2022/07/04 04:39:44;;;;;;;1.60;1.50;;;17.70;91.70;;;;;;5069155;28;21348;-87
2022/07/04 04:42:17;;;;;;;1.53;1.33;;;17.60;91.80;;;;;;5072764;28;20677;-87
2022/07/04 04:44:44;;;;;;;1.63;1.23;;;17.80;90.90;;;;;;5068679;28;20711;-87
2022/07/04 04:47:11;;;;;;;1.53;1.40;;;17.80;91.10;;;;;;5075709;28;20687;-87
2022/07/04 04:49:38;;;;;;;1.20;1.10;;;17.80;90.80;;;;;;5070398;28;20620;-88
2022/07/04 04:52:06;;;;;;;1.40;1.27;;;17.90;91.20;;;;;;5072991;28;21210;-86
2022/07/04 04:54:33;;;;;;;1.73;1.63;;;17.90;91.50;;;;;;5074003;28;20629;-87
2022/07/04 04:57:04;;;;;;;1.30;1.23;;;17.90;91.60;;;;;;5074467;28;21343;-87
2022/07/04 04:59:32;;;;;;;1.50;1.40;;;17.90;91.50;;;;;;5072702;28;21157;-86
2022/07/04 05:01:59;;;;;;;1.13;1.00;;;17.90;90.60;;;;;;5072818;28;21042;-86
2022/07/04 05:04:27;;;;;;;1.90;1.13;;;18.00;90.90;;;;;;5071834;28;21103;-86
2022/07/04 05:06:54;;;;;;;2.70;2.13;;;18.10;90.30;;;;;;5069168;28;20703;-86
2022/07/04 05:09:21;;;;;;;1.87;1.60;;;18.00;90.50;;;;;;5072407;28;20652;-85
2022/07/04 05:11:48;;;;;;;1.60;1.50;;;18.10;90.50;;;;;;5071877;28;20626;-85
2022/07/04 05:14:16;;;;;;;1.90;1.80;;;18.00;89.80;;;;;;5073479;28;20621;-87
2022/07/04 05:16:44;;;;;;;1.70;1.60;;;18.00;90.60;;;;;;5066988;28;20625;-87
2022/07/04 05:19:11;;;;;;;1.60;1.50;;;18.00;90.90;;;;;;5072889;28;21159;-86
2022/07/04 05:21:38;;;;;;;2.10;2.00;;;17.90;90.80;;;;;;5072352;28;20647;-86
2022/07/04 05:24:06;;;;;;;3.30;1.73;;;18.00;90.30;;;;;;5072714;28;20621;-87
2022/07/04 05:26:32;;;;;;;1.80;1.40;;;17.90;90.50;;;;;;5075985;28;21255;-86
2022/07/04 05:28:59;;;;;;;1.70;1.57;;;17.90;91.00;;;;;;5074605;28;20621;-87
2022/07/04 05:31:26;;;;;;;1.27;1.00;;;17.90;91.20;;;;;;5067308;28;20751;-87
2022/07/04 05:33:55;;;;;;;1.63;1.53;;;17.90;90.50;;;;;;5074658;28;20621;-86
2022/07/04 05:36:22;;;;;;;1.20;1.10;;;17.90;90.50;;;;;;5078199;28;20624;-86
2022/07/04 05:38:49;;;;;;;2.07;1.97;;;17.90;90.80;;;;;;5074320;28;20703;-88
2022/07/04 05:41:16;;;;;;;1.23;1.13;;;18.00;91.10;;;;;;5075258;28;20616;-87
2022/07/04 05:43:43;;;;;;;1.40;1.30;;;18.00;91.20;;;;;;5077504;28;20667;-88
2022/07/04 05:46:09;;;;;;;1.40;1.30;;;17.90;90.70;;;;;;5065291;28;20756;-87
2022/07/04 05:48:36;;;;;;;1.52;1.42;;;18.10;90.70;;;;;;5075325;28;20828;-87
2022/07/04 05:51:05;;;;;;;1.57;1.47;;;18.30;90.60;;;;;;5073874;28;20722;-87
2022/07/04 05:53:32;;;;;;;1.73;1.50;;;18.20;90.70;;;;;;5059291;28;21400;-87
2022/07/04 05:55:59;;;;;;;2.43;1.57;;;18.40;90.40;;;;;;5071505;28;21178;-87
2022/07/04 05:58:28;;;;;;;1.37;1.27;;;18.60;90.10;;;;;;5068584;28;20621;-88
2022/07/04 06:00:55;;;;;;;1.33;1.23;;;18.80;89.50;;;;;;5071999;28;20621;-87
2022/07/04 06:03:22;;;;;;;1.50;1.40;;;18.80;88.60;;;;;;5074131;28;20698;-86
2022/07/04 06:05:50;;;;;;;1.60;1.50;;;18.80;89.00;;;;;;5073012;28;20740;-85
2022/07/04 06:08:18;;;;;;;1.37;1.00;;;18.80;88.60;;;;;;5076573;28;20652;-87
2022/07/04 06:10:45;;;;;;;1.23;1.10;;;18.80;87.40;;;;;;5077887;28;20682;-85
2022/07/04 06:13:12;;;;;;;1.57;1.47;;;18.80;89.00;;;;;;5075586;28;21189;-86
2022/07/04 06:15:39;;;;;;;1.27;1.10;;;18.80;89.00;;;;;;5072065;28;20617;-88
2022/07/04 06:18:06;;;;;;;1.37;1.27;;;18.80;88.60;;;;;;5076036;28;20649;-87
2022/07/04 06:20:33;;;;;;;1.47;1.37;;;18.90;89.70;;;;;;5071553;28;20702;-86
2022/07/04 06:23:00;;;;;;;1.50;1.40;;;19.00;90.10;;;;;;5073616;28;20657;-86
2022/07/04 06:25:28;;;;;;;1.80;1.70;;;18.80;89.60;;;;;;5074176;28;20622;-85
2022/07/04 06:27:55;;;;;;;1.07;1.07;;;18.80;90.00;;;;;;5063021;28;20677;-86
2022/07/04 06:30:22;;;;;;;1.40;1.30;;;18.80;90.20;;;;;;5074960;28;20694;-87
2022/07/04 06:32:51;;;;;;;1.33;1.23;;;18.80;89.80;;;;;;5071078;28;20682;-87
2022/07/04 06:38:05;;;;;;;1.37;1.27;;;18.90;89.20;;;;;;5071100;28;21217;-86
2022/07/04 06:40:34;;;;;;;2.23;2.03;;;19.10;87.50;;;;;;5077189;28;20635;-87
2022/07/04 06:43:02;;;;;;;1.30;1.30;;;19.10;87.90;;;;;;5073570;28;20708;-86
2022/07/04 06:45:29;;;;;;;0.90;0.90;;;19.30;88.70;;;;;;5063487;28;20664;-86
2022/07/04 06:47:55;;;;;;;1.57;1.47;;;19.20;87.00;;;;;;5070763;28;20713;-87
2022/07/04 06:50:22;;;;;;;1.47;1.37;;;19.30;87.80;;;;;;5077253;28;20617;-87
2022/07/04 06:52:49;;;;;;;1.30;1.20;;;19.50;86.80;;;;;;5073900;28;20710;-88
2022/07/04 06:55:18;;;;;;;1.33;1.13;;;19.50;87.20;;;;;;5070953;28;20621;-86
2022/07/04 06:57:47;;;;;;;1.40;1.30;;;19.50;86.20;;;;;;5077167;28;20602;-87
2022/07/04 07:00:14;;;;;;;1.53;1.40;;;19.50;87.80;;;;;;5074597;28;20804;-87
2022/07/04 07:02:41;;;;;;;1.47;1.37;;;19.60;88.50;;;;;;5070950;28;20669;-87
2022/07/04 07:05:08;;;;;;;2.00;1.80;;;19.60;87.60;;;;;;5071622;28;20669;-88
2022/07/04 07:07:35;;;;;;;1.77;1.67;;;19.60;86.30;;;;;;5076543;28;20672;-87
2022/07/04 07:10:03;;;;;;;2.07;1.67;;;19.50;86.30;;;;;;5074722;28;20610;-86
2022/07/04 07:12:30;;;;;;;1.47;1.37;;;19.70;87.40;;;;;;5078993;28;21147;-88
2022/07/04 07:14:59;;;;;;;1.50;1.40;;;19.70;86.60;;;;;;5072231;28;20664;-85
2022/07/04 07:17:26;;;;;;;1.57;1.47;;;19.70;87.30;;;;;;5072666;28;21217;-87
2022/07/04 07:19:53;;;;;;;1.50;1.40;;;20.10;85.50;;;;;;5070256;28;21343;-88
2022/07/04 07:22:20;;;;;;;1.77;1.67;;;20.10;85.60;;;;;;5077677;28;20640;-86
2022/07/04 07:24:47;;;;;;;1.30;1.30;;;20.10;85.20;;;;;;5076280;28;20706;-88
2022/07/04 07:27:13;;;;;;;1.40;1.30;;;20.10;85.60;;;;;;5068876;28;20653;-88
2022/07/04 07:29:41;;;;;;;1.60;1.50;;;20.40;85.70;;;;;;5069214;28;20629;-86
2022/07/04 07:32:12;;;;;;;1.90;1.80;;;20.40;85.70;;;;;;5070556;28;20683;-87
2022/07/04 07:34:40;;;;;;;1.40;1.30;;;20.40;85.90;;;;;;5069447;28;20625;-88
2022/07/04 07:37:07;;;;;;;1.20;1.20;;;20.30;86.10;;;;;;5068976;28;20625;-88
2022/07/04 07:39:34;;;;;;;1.93;1.77;;;20.50;86.30;;;;;;5069864;28;20625;-86
2022/07/04 07:42:01;;;;;;;1.77;1.67;;;20.50;85.40;;;;;;5073192;28;20621;-86
2022/07/04 07:44:28;;;;;;;1.60;1.50;;;20.50;86.40;;;;;;5080307;28;20612;-87
2022/07/04 07:46:56;;;;;;;1.60;1.50;;;20.60;86.00;;;;;;5085160;28;20629;-87
2022/07/04 07:49:24;;;;;;;1.70;1.60;;;20.60;85.80;;;;;;5074747;28;20661;-88
2022/07/04 07:51:51;;;;;;;1.70;1.50;;;20.50;84.70;;;;;;5072235;28;21004;-88
2022/07/04 07:54:18;;;;;;;1.70;1.60;;;20.50;85.50;;;;;;5070887;28;21230;-87
2022/07/04 07:56:45;;;;;;;1.83;1.53;;;20.70;84.70;;;;;;5074321;28;20618;-87
2022/07/04 07:59:12;;;;;;;1.80;1.67;;;20.60;85.10;;;;;;5070790;28;20641;-86
2022/07/04 08:01:40;;;;;;;3.60;2.33;;;20.50;82.90;;;;;;5070850;28;21196;-90
2022/07/04 08:06:53;;;;;;;1.80;1.70;;;20.70;83.60;;;;;;5071236;28;20674;-88
2022/07/04 08:09:20;;;;;;;1.60;1.50;;;20.70;84.60;;;;;;5069008;28;20717;-87
2022/07/04 08:11:47;;;;;;;1.70;1.43;;;20.70;82.60;;;;;;5076592;28;20624;-89
2022/07/04 08:14:14;;;;;;;1.17;1.10;;;20.70;84.40;;;;;;5077784;28;21313;-89
2022/07/04 08:16:41;;;;;;;1.97;1.87;;;20.70;84.60;;;;;;5074939;28;20621;-88
2022/07/04 08:19:08;;;;;;;2.00;1.60;;;20.70;85.20;;;;;;5077676;28;20677;-89
2022/07/04 08:21:36;;;;;;;1.83;1.73;;;20.90;85.40;;;;;;5069850;28;20632;-87
2022/07/04 08:24:05;;;;;;;1.50;1.40;;;20.90;85.50;;;;;;5070692;28;20632;-89
2022/07/04 08:26:32;;;;;;;1.50;1.40;;;19.50;81.60;;;;;;5070741;28;20609;-87
2022/07/04 08:28:59;;;;;;;2.30;1.47;;;21.10;83.70;;;;;;5069146;28;20665;-89
2022/07/04 08:31:27;;;;;;;1.40;1.30;;;20.90;80.50;;;;;;5068146;28;20733;-87
2022/07/04 08:33:54;;;;;;;1.60;1.50;;;20.90;83.00;;;;;;5069395;28;20666;-88
2022/07/04 08:36:21;;;;;;;1.80;1.70;;;20.70;82.80;;;;;;5070861;28;21392;-88
2022/07/04 08:38:48;;;;;;;1.93;1.73;;;20.80;83.10;;;;;;5069830;28;20617;-88
2022/07/04 08:41:18;;;;;;;1.50;1.40;;;21.00;84.00;;;;;;5073508;28;20609;-87
2022/07/04 08:43:47;;;;;;;3.20;1.97;;;20.90;84.30;;;;;;5075230;28;20637;-88
2022/07/04 08:46:17;;;;;;;1.47;1.37;;;21.00;85.10;;;;;;5076838;28;21295;-89
2022/07/04 08:48:50;;;;;;;2.00;1.63;;;21.40;84.10;;;;;;5072267;28;20649;-88
2022/07/04 08:51:24;;;;;;;1.83;1.73;;;21.30;84.40;;;;;;5067550;28;20748;-89
2022/07/04 08:53:56;;;;;;;1.50;1.40;;;21.20;82.60;;;;;;5069881;28;20679;-87
2022/07/04 08:59:11;;;;;;;1.63;1.53;;;21.20;83.50;;;;;;5063761;28;20631;-86
2022/07/04 09:01:43;;;;;;;1.43;1.33;;;21.30;80.60;;;;;;5073287;28;20633;-87
2022/07/04 09:04:11;;;;;;;1.80;1.70;;;21.30;81.50;;;;;;5068555;28;21212;-84
2022/07/04 09:06:38;;;;;;;1.67;1.57;;;21.20;82.50;;;;;;5071548;28;20631;-85
2022/07/04 09:09:08;;;;;;;2.37;2.17;;;21.30;83.80;;;;;;5071428;28;20767;-86
2022/07/04 09:11:36;;;;;;;1.70;1.60;;;21.30;82.50;;;;;;5072503;28;20672;-87
2022/07/04 09:14:03;;;;;;;3.93;1.60;;;21.30;80.90;;;;;;5071368;28;21190;-87
2022/07/04 09:16:30;;;;;;;1.73;1.63;;;21.30;81.90;;;;;;5072532;28;20655;-88
2022/07/04 09:18:57;;;;;;;2.00;1.90;;;21.30;82.50;;;;;;5074744;28;20728;-88
2022/07/04 09:21:44;;;;;;;1.87;1.77;;;21.50;83.20;;;;;;5073531;28;20633;-87
2022/07/04 09:24:10;;;;;;;1.50;1.40;;;21.40;83.10;;;;;;5074775;28;20601;-86
2022/07/04 09:26:41;;;;;;;1.90;1.80;;;21.30;83.50;;;;;;5078946;28;20616;-86
2022/07/04 09:29:11;;;;;;;2.07;1.97;;;22.00;82.30;;;;;;5072037;28;20657;-86
2022/07/04 09:31:39;;;;;;;1.87;1.57;;;22.30;81.50;;;;;;5079929;28;20618;-88
2022/07/04 09:34:07;;;;;;;2.40;1.70;;;22.20;81.90;;;;;;5076635;28;21614;-86
2022/07/04 09:36:35;;;;;;;1.70;1.60;;;22.40;82.90;;;;;;5075864;28;20632;-86
2022/07/04 09:39:14;;;;;;;1.67;1.57;;;22.50;79.10;;;;;;5074627;28;20627;-86
2022/07/04 09:42:00;;;;;;;2.17;1.90;;;22.70;77.30;;;;;;5065671;28;20632;-89
2022/07/04 09:44:30;;;;;;;1.50;1.40;;;22.70;76.80;;;;;;5074470;28;21202;-88
2022/07/04 09:46:57;;;;;;;2.00;1.90;;;22.70;78.20;;;;;;5079272;28;20633;-87
2022/07/04 09:49:24;;;;;;;2.10;1.90;;;22.80;78.60;;;;;;5075497;28;20775;-88
2022/07/04 09:51:54;;;;;;;2.00;1.80;;;23.00;76.60;;;;;;5073476;28;20723;-85
2022/07/04 09:54:25;;;;;;;2.00;1.90;;;23.00;76.60;;;;;;5064505;28;20720;-85
2022/07/04 09:56:54;;;;;;;1.70;1.60;;;23.30;74.50;;;;;;5072840;28;20661;-87
2022/07/04 09:59:23;;;;;;;1.60;1.50;;;23.50;74.10;;;;;;5077594;28;20677;-85
2022/07/04 10:01:50;;;;;;;2.00;1.90;;;23.70;75.80;;;;;;5072828;28;20617;-86
2022/07/04 10:04:17;;;;;;;1.83;1.73;;;23.20;73.10;;;;;;5070659;28;20659;-88
2022/07/04 10:06:45;;;;;;;2.00;1.90;;;23.40;72.00;;;;;;5070774;28;20625;-87
2022/07/04 10:09:14;;;;;;;1.77;1.60;;;23.70;71.30;;;;;;5072535;28;20669;-87
2022/07/04 10:11:42;;;;;;;1.73;1.63;;;23.70;68.50;;;;;;5073777;28;20621;-87
2022/07/04 10:14:12;;;;;;;2.00;1.90;;;24.00;80.80;;;;;;5071849;28;20664;-88
2022/07/04 10:16:41;;;;;;;6.00;1.90;;;24.20;72.10;;;;;;5071927;28;20711;-86
2022/07/04 10:19:09;;;;;;;1.60;1.50;;;24.40;67.80;;;;;;5069730;28;20763;-86
2022/07/04 10:21:36;;;;;;;1.70;1.60;;;24.60;67.30;;;;;;5073369;28;20637;-86
2022/07/04 10:24:04;;;;;;;5.00;1.40;;;24.70;65.60;;;;;;5071122;28;20714;-85
2022/07/04 10:26:31;;;;;;;1.37;1.27;;;24.80;69.10;;;;;;5085248;28;20620;-85
2022/07/04 10:28:59;;;;;;;1.80;1.70;;;;;;;;;;5077360;28;20714;-88
2022/07/04 10:31:27;;;;;;;1.50;1.40;;;25.20;65.00;;;;;;5070171;28;20667;-85
2022/07/04 10:33:57;;;;;;;1.40;1.30;;;25.00;61.70;;;;;;5070864;28;21167;-86
2022/07/04 10:36:28;;;;;;;1.37;1.27;;;25.10;63.30;;;;;;5078146;28;21028;-86
2022/07/04 10:38:58;;;;;;;1.83;1.73;;;25.30;63.10;;;;;;5075950;28;20610;-86
2022/07/04 10:41:26;;;;;;;1.10;1.10;;;25.40;60.20;;;;;;5081133;28;20624;-85
2022/07/04 10:44:06;;;;;;;1.93;1.83;;;25.50;62.80;;;;;;5079066;28;20716;-86
2022/07/04 10:46:49;;;;;;;2.93;1.67;;;25.70;62.90;;;;;;5080458;28;20645;-88
2022/07/04 10:49:29;;;;;;;1.57;1.47;;;25.80;64.20;;;;;;5069833;28;20669;-86
2022/07/04 10:52:02;;;;;;;1.43;1.30;;;26.30;65.30;;;;;;5078134;28;20671;-85
2022/07/04 10:54:33;;;;;;;1.77;1.63;;;26.30;67.00;;;;;;5075113;28;21172;-87
2022/07/04 10:57:11;;;;;;;1.83;1.73;;;26.50;61.80;;;;;;5070782;28;20626;-87
2022/07/04 10:59:38;;;;;;;1.93;1.83;;;26.50;62.60;;;;;;5079840;28;20616;-87
2022/07/04 11:02:30;;;;;;;1.70;1.60;;;26.50;59.70;;;;;;5079461;28;20633;-85
2022/07/04 11:05:04;;;;;;;1.60;1.50;;;26.40;58.70;;;;;;5067291;28;20629;-85
2022/07/04 11:08:00;;;;;;;1.97;1.40;;;26.50;59.10;;;;;;5088518;28;21243;-86
2022/07/04 11:10:28;;;;;;;1.63;1.53;;;25.70;59.60;;;;;;5089831;28;20739;-86
2022/07/04 11:13:15;;;;;;;1.37;1.30;;;25.60;61.60;;;;;;5080131;28;20621;-87
2022/07/04 11:16:05;;;;;;;2.50;1.50;;;25.50;62.30;;;;;;5078236;28;20629;-87
2022/07/04 11:18:43;;;;;;;1.57;1.47;;;25.50;66.70;;;;;;5085661;28;20629;-85
2022/07/04 11:21:22;;;;;;;2.23;2.10;;;25.50;66.30;;;;;;5069154;28;20609;-86
2022/07/04 11:23:56;;;;;;;1.93;1.70;;;25.50;65.30;;;;;;5085068;28;20708;-87
2022/07/04 11:26:25;;;;;;;1.80;1.67;;;25.60;67.20;;;;;;5087827;28;20632;-86
2022/07/04 11:28:52;;;;;;;1.77;1.67;;;25.80;66.20;;;;;;5080361;28;20695;-87
2022/07/04 11:31:19;;;;;;;1.63;1.53;;;25.90;65.70;;;;;;5086916;28;20629;-87
2022/07/04 11:33:47;;;;;;;1.67;1.57;;;26.20;64.20;;;;;;5086866;28;20667;-84
2022/07/04 11:36:18;;;;;;;1.93;1.80;;;26.40;63.50;;;;;;5074933;28;20618;-86
2022/07/04 11:38:50;;;;;;;1.90;1.80;;;27.00;62.60;;;;;;5072340;28;20720;-87
2022/07/04 11:47:06;;;;;;;2.10;1.90;;;27.80;57.80;;;;;;5082685;28;20621;-86
2022/07/04 11:49:33;;;;;;;1.93;1.70;;;28.10;60.80;;;;;;5087933;28;20660;-86
2022/07/04 11:52:01;;;;;;;1.53;1.43;;;28.20;58.10;;;;;;5088037;28;20777;-86
2022/07/04 11:54:28;;;;;;;1.73;1.63;;;27.80;57.90;;;;;;5082452;28;20675;-86
2022/07/04 11:57:19;;;;;;;1.97;1.87;;;29.30;55.60;;;;;;5085975;28;20677;-86
2022/07/04 12:00:00;;;;;;;1.80;1.70;;;29.40;56.30;;;;;;5087298;28;20732;-86
2022/07/04 12:02:28;;;;;;;2.03;1.67;;;29.80;57.40;;;;;;5086108;28;20699;-86
2022/07/04 12:04:55;;;;;;;1.90;1.80;;;30.90;57.20;;;;;;5068155;28;20622;-86
2022/07/04 12:07:25;;;;;;;2.03;1.93;;;31.70;55.00;;;;;;5067521;28;20683;-88
2022/07/04 12:09:54;;;;;;;1.83;1.73;;;31.80;53.50;;;;;;5082368;28;21478;-86
2022/07/04 12:12:21;;;;;;;1.73;1.63;;;31.50;53.40;;;;;;5088387;28;20706;-86
2022/07/04 12:14:59;;;;;;;1.93;1.83;;;31.90;52.60;;;;;;5075607;28;20655;-86
2022/07/04 12:17:34;;;;;;;1.73;1.63;;;32.20;53.60;;;;;;5072105;28;20683;-87
2022/07/04 12:20:03;;;;;;;4.00;1.80;;;32.70;51.00;;;;;;5072925;28;20780;-87
2022/07/04 12:22:37;;;;;;;2.10;2.00;;;33.00;51.20;;;;;;5069131;28;21019;-86
2022/07/04 12:25:07;;;;;;;1.87;1.77;;;33.90;49.10;;;;;;5072876;28;20755;-85
2022/07/04 12:27:35;;;;;;;1.83;1.73;;;34.10;49.20;;;;;;5076166;28;20652;-86
2022/07/04 12:30:04;;;;;;;1.53;1.43;;;34.10;49.60;;;;;;5071916;28;21276;-87
2022/07/04 12:32:50;;;;;;;1.60;1.50;;;33.30;49.60;;;;;;5077670;28;21074;-86
2022/07/04 12:35:44;;;;;;;2.00;1.90;;;33.90;48.50;;;;;;5074399;28;20632;-87
2022/07/04 12:38:15;;;;;;;1.80;1.70;;;34.80;46.70;;;;;;5068019;28;20632;-86
2022/07/04 12:40:54;;;;;;;2.10;2.00;;;34.80;47.20;;;;;;5070287;28;20730;-86
2022/07/04 12:43:21;;;;;;;1.87;1.67;;;34.90;47.60;;;;;;5061349;28;20624;-85
2022/07/04 12:45:50;;;;;;;1.77;1.67;;;35.30;47.40;;;;;;5074196;28;20615;-85
2022/07/04 12:48:19;;;;;;;1.63;1.53;;;35.80;47.60;;;;;;5075147;28;20217;-89
2022/07/04 12:50:46;;;;;;;1.77;1.67;;;36.50;43.30;;;;;;5073265;28;20222;-82
2022/07/04 12:53:15;;;;;;;2.00;1.90;;;33.20;44.80;;;;;;5068897;28;20619;-85
2022/07/04 12:55:43;;;;;;;1.67;1.57;;;;;;;;;;5067094;28;20661;-85
2022/07/04 12:58:14;;;;;;;2.10;2.00;;;35.10;44.20;;;;;;5072575;28;20648;-87
2022/07/04 13:00:42;;;;;;;1.90;1.70;;;36.00;48.10;;;;;;5071959;28;20740;-87
2022/07/04 13:03:09;;;;;;;1.40;1.30;;;36.00;47.10;;;;;;5071640;28;20662;-86
2022/07/04 13:05:37;;;;;;;1.47;1.40;;;36.30;42.80;;;;;;5071098;28;20247;-87
2022/07/04 13:08:04;;;;;;;1.60;1.50;;;34.90;46.00;;;;;;5073405;28;20687;-86
2022/07/04 13:10:33;;;;;;;1.90;1.80;;;34.50;45.00;;;;;;5072318;28;20325;-85
2022/07/04 13:13:00;;;;;;;1.70;1.60;;;33.40;46.40;;;;;;5062631;28;20625;-85
2022/07/04 13:15:26;;;;;;;1.30;1.30;;;33.60;46.10;;;;;;5069724;28;20617;-87
2022/07/04 13:17:53;;;;;;;2.43;1.90;;;33.70;46.60;;;;;;5074327;28;20647;-85